createdAt,value
2023-04-27T00:00:11.549Z,88.96
2023-04-27T00:03:00.286Z,88.68
2023-04-27T00:05:29.957Z,88.63
2023-04-27T00:07:58.792Z,88.58
2023-04-27T00:10:27.677Z,88.43
2023-04-27T00:12:56.661Z,88.45
2023-04-27T00:15:25.360Z,88.41
2023-04-27T00:17:55.075Z,88.53
2023-04-27T00:20:24.259Z,88.74
2023-04-27T00:22:53.059Z,88.81
2023-04-27T00:25:22.470Z,88.95
2023-04-27T00:27:51.459Z,88.83
2023-04-27T00:30:20.432Z,88.76
2023-04-27T00:32:49.088Z,88.71
2023-04-27T00:35:18.442Z,88.67
2023-04-27T00:37:47.105Z,89.02
2023-04-27T00:40:15.784Z,89.20
2023-04-27T00:42:44.621Z,89.40
2023-04-27T00:45:14.996Z,89.45
2023-04-27T00:47:45.004Z,89.62
2023-04-27T00:50:13.721Z,89.74
2023-04-27T00:52:42.803Z,89.86
2023-04-27T00:55:12.312Z,90.18
2023-04-27T00:57:41.808Z,90.17
2023-04-27T01:00:13.934Z,90.24
2023-04-27T01:02:43.271Z,90.52
2023-04-27T01:05:12.874Z,90.68
2023-04-27T01:07:41.881Z,90.81
2023-04-27T01:10:11.163Z,90.82
2023-04-27T01:12:39.887Z,90.96
2023-04-27T01:15:11.271Z,91.07
2023-04-27T01:17:42.196Z,90.98
2023-04-27T01:20:11.620Z,90.93
2023-04-27T01:22:40.655Z,91.07
2023-04-27T01:25:10.508Z,91.23
2023-04-27T01:27:39.262Z,91.09
2023-04-27T01:30:08.664Z,90.88
2023-04-27T01:32:40.696Z,90.80
2023-04-27T01:35:10.428Z,90.73
2023-04-27T01:37:38.902Z,90.78
2023-04-27T01:40:09.122Z,90.72
2023-04-27T01:42:37.817Z,90.97
2023-04-27T01:45:07.877Z,90.97
2023-04-27T01:47:36.822Z,91.03
2023-04-27T01:50:06.747Z,90.98
2023-04-27T01:52:35.946Z,91.00
2023-04-27T01:55:05.221Z,91.28
2023-04-27T01:57:34.120Z,91.08
2023-04-27T02:00:03.729Z,91.25
2023-04-27T02:02:51.599Z,91.36
2023-04-27T02:05:20.683Z,91.50
2023-04-27T02:07:50.058Z,91.69
2023-04-27T02:10:18.645Z,91.86
2023-04-27T02:12:47.336Z,91.80
2023-04-27T02:15:16.481Z,91.76
2023-04-27T02:17:45.969Z,91.94
2023-04-27T02:20:15.262Z,92.04
2023-04-27T02:22:44.894Z,92.09
2023-04-27T02:25:14.145Z,92.01
2023-04-27T02:27:44.492Z,92.19
2023-04-27T02:30:14.200Z,92.42
2023-04-27T02:32:44.423Z,92.61
2023-04-27T02:35:13.392Z,92.78
2023-04-27T02:37:42.307Z,92.70
2023-04-27T02:40:12.024Z,92.47
2023-04-27T02:42:41.194Z,92.45
2023-04-27T02:45:12.832Z,92.53
2023-04-27T02:47:42.715Z,92.59
2023-04-27T02:50:12.054Z,92.67
2023-04-27T02:52:42.101Z,92.68
2023-04-27T02:55:10.814Z,92.84
2023-04-27T02:57:39.557Z,92.88
2023-04-27T03:00:10.560Z,92.78
2023-04-27T03:02:39.426Z,92.87
2023-04-27T03:05:09.394Z,92.93
2023-04-27T03:07:38.715Z,93.04
2023-04-27T03:10:07.912Z,93.00
2023-04-27T03:12:37.698Z,93.17
2023-04-27T03:15:06.993Z,92.80
2023-04-27T03:17:38.164Z,92.98
2023-04-27T03:20:10.461Z,92.93
2023-04-27T03:22:39.270Z,93.00
2023-04-27T03:25:08.290Z,93.33
2023-04-27T03:27:37.090Z,93.41
2023-04-27T03:30:07.820Z,93.24
2023-04-27T03:32:36.944Z,93.00
2023-04-27T03:35:07.073Z,93.07
2023-04-27T03:37:36.035Z,92.81
2023-04-27T03:40:08.007Z,92.85
2023-04-27T03:42:36.896Z,92.70
2023-04-27T03:45:07.099Z,92.58
2023-04-27T03:47:36.348Z,92.42
2023-04-27T03:50:05.723Z,92.15
2023-04-27T03:52:34.992Z,92.17
2023-04-27T03:55:07.871Z,92.23
2023-04-27T03:57:36.669Z,92.22
2023-04-27T04:00:12.004Z,92.45
2023-04-27T04:02:43.598Z,92.45
2023-04-27T04:05:15.305Z,92.61
2023-04-27T04:07:44.749Z,92.56
2023-04-27T04:10:13.934Z,92.64
2023-04-27T04:12:43.010Z,92.63
2023-04-27T04:15:12.929Z,92.63
2023-04-27T04:17:42.075Z,92.70
2023-04-27T04:20:11.430Z,92.71
2023-04-27T04:22:40.624Z,92.69
2023-04-27T04:25:09.928Z,92.71
2023-04-27T04:27:39.137Z,92.61
2023-04-27T04:30:08.971Z,92.64
2023-04-27T04:32:40.898Z,92.42
2023-04-27T04:35:09.779Z,92.10
2023-04-27T04:37:38.586Z,91.95
2023-04-27T04:40:11.917Z,91.67
2023-04-27T04:42:41.059Z,90.87
2023-04-27T04:45:11.110Z,90.42
2023-04-27T04:47:40.149Z,89.99
2023-04-27T04:50:10.669Z,89.52
2023-04-27T04:52:40.113Z,88.73
2023-04-27T04:55:09.841Z,88.72
2023-04-27T04:57:39.771Z,88.50
2023-04-27T05:00:18.661Z,88.27
2023-04-27T05:02:47.700Z,87.96
2023-04-27T05:05:17.773Z,87.96
2023-04-27T05:07:46.761Z,87.97
2023-04-27T05:10:17.028Z,87.92
2023-04-27T05:12:46.180Z,87.56
2023-04-27T05:15:15.069Z,87.51
2023-04-27T05:17:44.002Z,87.71
2023-04-27T05:20:12.867Z,87.63
2023-04-27T05:22:42.139Z,87.64
2023-04-27T05:25:10.829Z,87.78
2023-04-27T05:27:39.764Z,88.17
2023-04-27T05:30:11.486Z,87.80
2023-04-27T05:32:40.735Z,87.92
2023-04-27T05:35:10.824Z,87.65
2023-04-27T05:37:39.733Z,86.71
2023-04-27T05:40:10.211Z,86.64
2023-04-27T05:42:39.838Z,85.97
2023-04-27T05:45:10.082Z,85.31
2023-04-27T05:47:39.616Z,84.86
2023-04-27T05:50:09.152Z,84.35
2023-04-27T05:52:39.426Z,83.28
2023-04-27T05:55:08.760Z,81.50
2023-04-27T05:57:37.662Z,81.07
2023-04-27T06:00:11.133Z,80.16
2023-04-27T06:02:42.917Z,78.69
2023-04-27T06:05:12.311Z,77.21
2023-04-27T06:07:41.971Z,77.28
2023-04-27T06:10:12.097Z,76.86
2023-04-27T06:12:41.179Z,77.03
2023-04-27T06:15:11.130Z,76.44
2023-04-27T06:17:40.405Z,76.03
2023-04-27T06:20:10.091Z,75.93
2023-04-27T06:22:39.345Z,76.04
2023-04-27T06:25:09.608Z,75.84
2023-04-27T06:27:38.902Z,75.65
2023-04-27T06:30:08.624Z,74.44
2023-04-27T06:32:37.749Z,73.88
2023-04-27T06:35:07.179Z,73.26
2023-04-27T06:37:36.099Z,73.17
2023-04-27T06:40:05.951Z,71.32
2023-04-27T06:42:35.638Z,71.10
2023-04-27T06:45:06.429Z,72.30
2023-04-27T06:47:35.654Z,72.27
2023-04-27T06:50:05.067Z,68.23
2023-04-27T06:52:34.463Z,67.32
2023-04-27T06:55:03.554Z,65.98
2023-04-27T06:57:32.662Z,65.22
2023-04-27T07:00:01.654Z,66.85
2023-04-27T07:02:31.408Z,66.60
2023-04-27T07:05:00.740Z,66.96
2023-04-27T07:07:29.754Z,66.31
2023-04-27T07:09:59.453Z,65.43
2023-04-27T07:12:28.438Z,65.83
2023-04-27T07:14:57.246Z,64.89
2023-04-27T07:17:26.250Z,65.58
2023-04-27T07:19:55.333Z,65.58
2023-04-27T07:22:24.413Z,63.58
2023-04-27T07:24:53.524Z,61.61
2023-04-27T07:27:22.721Z,63.48
2023-04-27T07:29:51.809Z,63.30
2023-04-27T07:32:22.073Z,61.28
2023-04-27T07:34:54.329Z,60.87
2023-04-27T07:37:24.645Z,60.65
2023-04-27T07:39:53.942Z,61.05
2023-04-27T07:42:23.227Z,61.90
2023-04-27T07:44:53.070Z,60.56
2023-04-27T07:47:22.561Z,60.43
2023-04-27T07:49:51.419Z,60.53
2023-04-27T07:52:20.532Z,59.19
2023-04-27T07:54:49.512Z,59.59
2023-04-27T07:57:18.911Z,60.14
2023-04-27T07:59:48.129Z,59.85
2023-04-27T08:02:20.555Z,59.10
2023-04-27T08:04:51.045Z,58.86
2023-04-27T08:07:20.589Z,58.70
2023-04-27T08:09:52.947Z,58.82
2023-04-27T08:12:22.193Z,58.81
2023-04-27T08:14:51.083Z,57.49
2023-04-27T08:17:22.746Z,58.75
2023-04-27T08:19:52.058Z,57.31
2023-04-27T08:22:21.026Z,56.54
2023-04-27T08:24:50.330Z,56.04
2023-04-27T08:27:19.844Z,55.84
2023-04-27T08:29:49.847Z,55.47
2023-04-27T08:32:19.272Z,55.48
2023-04-27T08:34:48.176Z,55.13
2023-04-27T08:37:17.062Z,55.05
2023-04-27T08:39:48.082Z,54.34
2023-04-27T08:42:17.429Z,55.03
2023-04-27T08:44:46.776Z,56.10
2023-04-27T08:47:16.424Z,56.96
2023-04-27T08:49:45.069Z,56.74
2023-04-27T08:52:15.524Z,55.21
2023-04-27T08:54:44.737Z,53.94
2023-04-27T08:57:14.998Z,54.00
2023-04-27T08:59:47.085Z,54.23
2023-04-27T09:02:20.749Z,53.47
2023-04-27T09:04:51.492Z,53.25
2023-04-27T09:07:23.062Z,53.75
2023-04-27T09:10:04.409Z,54.01
2023-04-27T09:12:33.446Z,53.50
2023-04-27T09:15:09.029Z,52.87
2023-04-27T09:17:39.351Z,54.59
2023-04-27T09:20:13.898Z,55.09
2023-04-27T09:22:46.516Z,55.22
2023-04-27T09:25:31.918Z,54.83
2023-04-27T09:28:01.880Z,54.98
2023-04-27T09:30:31.223Z,54.56
2023-04-27T09:33:04.572Z,54.04
2023-04-27T09:35:34.227Z,54.51
2023-04-27T09:38:03.417Z,54.28
2023-04-27T09:40:32.311Z,54.25
2023-04-27T09:43:04.677Z,54.37
2023-04-27T09:45:37.717Z,54.98
2023-04-27T09:48:07.639Z,55.41
2023-04-27T09:50:41.583Z,55.21
2023-04-27T09:53:12.588Z,53.38
2023-04-27T09:56:14.367Z,53.73
2023-04-27T09:58:48.811Z,54.64
2023-04-27T10:01:26.896Z,54.23
2023-04-27T10:03:56.597Z,53.20
2023-04-27T10:07:03.400Z,52.47
2023-04-27T10:09:42.306Z,53.40
2023-04-27T10:12:24.437Z,53.54
2023-04-27T10:14:58.773Z,53.85
2023-04-27T10:17:54.808Z,55.67
2023-04-27T10:20:36.334Z,58.99
2023-04-27T10:23:05.651Z,61.42
2023-04-27T10:25:40.927Z,61.86
2023-04-27T10:28:17.149Z,61.86
2023-04-27T10:30:49.131Z,61.86
2023-04-27T10:33:20.685Z,61.86
2023-04-27T10:35:58.539Z,59.73
2023-04-27T10:38:32.300Z,58.77
2023-04-27T10:41:05.563Z,59.06
2023-04-27T10:43:36.737Z,59.63
2023-04-27T10:46:13.626Z,58.39
2023-04-27T10:48:46.277Z,59.16
2023-04-27T10:51:18.238Z,58.74
2023-04-27T10:53:53.248Z,58.63
2023-04-27T10:56:22.393Z,57.13
2023-04-27T10:58:51.357Z,57.44
2023-04-27T11:01:27.172Z,55.66
2023-04-27T11:04:00.217Z,56.45
2023-04-27T11:06:30.650Z,56.08
2023-04-27T11:09:00.886Z,56.80
2023-04-27T11:11:29.447Z,54.82
2023-04-27T11:13:58.757Z,53.93
2023-04-27T11:16:27.789Z,53.49
2023-04-27T11:18:57.432Z,52.44
2023-04-27T11:21:28.905Z,50.52
2023-04-27T11:23:58.382Z,50.24
2023-04-27T11:26:27.181Z,48.44
2023-04-27T11:29:03.887Z,48.11
2023-04-27T11:31:51.834Z,49.26
2023-04-27T11:34:22.820Z,49.01
2023-04-27T11:37:18.031Z,49.77
2023-04-27T11:39:47.547Z,50.97
2023-04-27T11:42:24.908Z,50.36
2023-04-27T11:44:55.512Z,47.95
2023-04-27T11:47:26.511Z,46.08
2023-04-27T11:49:58.133Z,47.22
2023-04-27T11:52:33.637Z,50.25
2023-04-27T11:55:04.779Z,51.14
2023-04-27T11:57:35.180Z,51.93
2023-04-27T12:00:12.551Z,52.66
2023-04-27T12:02:45.513Z,53.10
2023-04-27T12:05:14.904Z,52.80
2023-04-27T12:07:43.897Z,51.85
2023-04-27T12:10:13.079Z,51.52
2023-04-27T12:12:42.125Z,52.09
2023-04-27T12:15:11.420Z,52.90
2023-04-27T12:17:40.476Z,53.33
2023-04-27T12:20:10.279Z,52.96
2023-04-27T12:22:39.338Z,52.14
2023-04-27T12:25:08.447Z,51.32
2023-04-27T12:27:37.721Z,52.21
2023-04-27T12:30:07.226Z,51.15
2023-04-27T12:32:36.360Z,50.32
2023-04-27T12:35:06.579Z,50.41
2023-04-27T12:37:35.660Z,50.65
2023-04-27T12:40:07.817Z,51.43
2023-04-27T12:42:37.521Z,51.05
2023-04-27T12:45:07.840Z,50.18
2023-04-27T12:47:58.290Z,48.57
2023-04-27T12:50:27.234Z,48.52
2023-04-27T12:52:55.710Z,48.08
2023-04-27T12:58:00.166Z,46.19
2023-04-27T13:00:30.577Z,45.63
2023-04-27T13:03:00.972Z,44.73
2023-04-27T13:05:34.595Z,45.34
2023-04-27T13:08:03.300Z,45.45
2023-04-27T13:10:32.471Z,46.68
2023-04-27T13:13:01.915Z,46.55
2023-04-27T13:15:32.133Z,44.28
2023-04-27T13:18:02.349Z,42.91
2023-04-27T13:20:31.117Z,43.62
2023-04-27T13:22:59.901Z,42.37
2023-04-27T13:25:31.640Z,42.10
2023-04-27T13:28:01.038Z,41.76
2023-04-27T13:30:30.867Z,42.40
2023-04-27T13:33:14.311Z,38.97
2023-04-27T13:35:49.740Z,39.04
2023-04-27T13:38:20.649Z,38.48
2023-04-27T13:40:49.573Z,39.14
2023-04-27T13:43:19.890Z,40.27
2023-04-27T13:45:50.764Z,40.91
2023-04-27T13:48:19.916Z,41.08
2023-04-27T13:50:49.644Z,41.27
2023-04-27T13:53:18.915Z,42.91
2023-04-27T13:55:50.199Z,43.67
2023-04-27T13:58:19.184Z,43.20
2023-04-27T14:00:49.310Z,43.73
2023-04-27T14:03:22.171Z,45.21
2023-04-27T14:05:54.057Z,47.59
2023-04-27T14:08:24.469Z,48.17
2023-04-27T14:10:54.081Z,48.95
2023-04-27T14:13:29.834Z,50.01
2023-04-27T14:16:12.275Z,51.24
2023-04-27T14:18:46.611Z,49.53
2023-04-27T14:21:15.549Z,50.00
2023-04-27T14:23:44.859Z,50.02
2023-04-27T14:26:14.044Z,50.38
2023-04-27T14:28:43.060Z,50.29
2023-04-27T14:31:11.826Z,49.75
2023-04-27T14:33:42.791Z,48.71
2023-04-27T14:36:12.999Z,49.02
2023-04-27T14:38:47.629Z,49.10
2023-04-27T14:41:22.566Z,49.46
2023-04-27T14:44:00.052Z,49.42
2023-04-27T14:46:34.719Z,50.06
2023-04-27T14:49:10.007Z,49.94
2023-04-27T14:51:46.547Z,50.73
2023-04-27T14:54:23.038Z,50.96
2023-04-27T14:56:58.591Z,50.09
2023-04-27T14:59:31.135Z,49.38
2023-04-27T15:02:01.711Z,48.82
2023-04-27T15:04:31.616Z,48.99
2023-04-27T15:07:00.877Z,49.37
2023-04-27T15:09:32.386Z,49.89
2023-04-27T15:12:02.706Z,48.85
2023-04-27T15:14:32.459Z,48.33
2023-04-27T15:17:01.712Z,48.21
2023-04-27T15:19:30.803Z,49.03
2023-04-27T15:22:02.776Z,50.43
2023-04-27T15:24:32.358Z,50.61
2023-04-27T15:27:01.039Z,49.96
2023-04-27T15:29:29.867Z,49.22
2023-04-27T15:31:58.522Z,49.90
2023-04-27T15:34:28.122Z,49.96
2023-04-27T15:36:57.041Z,49.44
2023-04-27T15:39:25.712Z,48.89
2023-04-27T15:41:57.063Z,49.24
2023-04-27T15:44:30.878Z,49.54
2023-04-27T15:47:03.115Z,49.35
2023-04-27T15:49:34.439Z,49.20
2023-04-27T15:52:09.724Z,49.14
2023-04-27T15:54:38.434Z,47.85
2023-04-27T15:57:10.319Z,48.59
2023-04-27T15:59:41.375Z,48.58
2023-04-27T16:02:14.414Z,49.06
2023-04-27T16:04:43.395Z,48.78
2023-04-27T16:07:20.202Z,48.37
2023-04-27T16:09:54.897Z,48.44
2023-04-27T16:12:39.462Z,48.57
2023-04-27T16:15:10.946Z,48.77
2023-04-27T16:17:43.325Z,48.74
2023-04-27T16:20:12.376Z,49.18
2023-04-27T16:22:41.171Z,49.45
2023-04-27T16:25:11.407Z,49.64
2023-04-27T16:27:40.050Z,49.71
2023-04-27T16:30:10.188Z,49.13
2023-04-27T16:32:39.069Z,49.13
2023-04-27T16:35:08.853Z,49.14
2023-04-27T16:37:37.361Z,49.15
2023-04-27T16:40:08.435Z,48.94
2023-04-27T16:42:37.101Z,49.30
2023-04-27T16:45:09.055Z,49.63
2023-04-27T16:47:38.920Z,50.13
2023-04-27T16:50:07.974Z,50.46
2023-04-27T16:52:36.539Z,49.88
2023-04-27T16:55:06.409Z,50.26
2023-04-27T16:57:35.447Z,50.59
2023-04-27T17:00:06.740Z,50.16
2023-04-27T17:02:35.579Z,50.42
2023-04-27T17:05:04.839Z,50.78
2023-04-27T17:07:33.561Z,50.74
2023-04-27T17:10:02.152Z,50.99
2023-04-27T17:12:30.931Z,51.39
2023-04-27T17:14:59.617Z,51.34
2023-04-27T17:17:33.650Z,51.30
2023-04-27T17:20:02.726Z,51.62
2023-04-27T17:22:33.592Z,51.84
2023-04-27T17:25:02.458Z,51.53
2023-04-27T17:27:32.084Z,51.54
2023-04-27T17:30:02.609Z,51.41
2023-04-27T17:32:32.342Z,51.40
2023-04-27T17:35:01.187Z,51.61
2023-04-27T17:37:30.202Z,51.64
2023-04-27T17:39:59.621Z,51.42
2023-04-27T17:42:28.478Z,51.70
2023-04-27T17:44:57.583Z,51.74
2023-04-27T17:47:26.872Z,51.59
2023-04-27T17:49:56.181Z,51.74
2023-04-27T17:52:24.855Z,52.21
2023-04-27T17:54:53.458Z,52.55
2023-04-27T17:57:23.268Z,53.07
2023-04-27T17:59:53.072Z,52.87
2023-04-27T18:02:22.544Z,52.98
2023-04-27T18:04:51.361Z,53.25
2023-04-27T18:07:21.260Z,53.35
2023-04-27T18:09:50.887Z,53.52
2023-04-27T18:12:19.987Z,53.90
2023-04-27T18:14:48.761Z,55.18
2023-04-27T18:17:17.464Z,56.65
2023-04-27T18:19:47.019Z,57.19
2023-04-27T18:22:16.689Z,56.96
2023-04-27T18:24:45.496Z,57.41
2023-04-27T18:27:17.235Z,57.52
2023-04-27T18:29:48.159Z,58.08
2023-04-27T18:32:17.289Z,57.92
2023-04-27T18:34:46.643Z,57.81
2023-04-27T18:37:17.588Z,57.20
2023-04-27T18:39:47.573Z,57.00
2023-04-27T18:42:18.890Z,57.40
2023-04-27T18:44:49.481Z,57.42
2023-04-27T18:47:18.980Z,57.90
2023-04-27T18:49:48.702Z,57.62
2023-04-27T18:52:19.531Z,57.83
2023-04-27T18:54:50.390Z,58.03
2023-04-27T18:57:19.755Z,58.38
2023-04-27T18:59:49.470Z,59.22
2023-04-27T19:02:20.129Z,59.18
2023-04-27T19:05:01.717Z,58.89
2023-04-27T19:07:39.110Z,59.90
2023-04-27T19:10:09.470Z,60.70
2023-04-27T19:12:39.259Z,60.72
2023-04-27T19:15:09.003Z,60.83
2023-04-27T19:17:39.751Z,60.85
2023-04-27T19:20:10.695Z,62.03
2023-04-27T19:22:41.032Z,62.80
2023-04-27T19:25:13.196Z,63.54
2023-04-27T19:27:42.403Z,64.64
2023-04-27T19:30:12.034Z,64.16
2023-04-27T19:32:46.022Z,62.24
2023-04-27T19:35:15.986Z,62.06
2023-04-27T19:37:45.529Z,62.00
2023-04-27T19:40:15.959Z,62.61
2023-04-27T19:42:48.033Z,63.40
2023-04-27T19:45:18.440Z,63.08
2023-04-27T19:47:54.358Z,63.20
2023-04-27T19:50:24.741Z,63.64
2023-04-27T19:52:54.153Z,65.92
2023-04-27T19:55:24.148Z,65.08
2023-04-27T19:57:54.282Z,64.74
2023-04-27T20:00:23.580Z,65.57
2023-04-27T20:02:53.920Z,67.49
2023-04-27T20:05:23.563Z,68.76
2023-04-27T20:07:53.118Z,69.39
2023-04-27T20:10:22.510Z,69.33
2023-04-27T20:12:56.898Z,69.54
2023-04-27T20:15:27.153Z,69.19
2023-04-27T20:17:55.978Z,68.93
2023-04-27T20:20:25.214Z,69.09
2023-04-27T20:22:54.239Z,69.42
2023-04-27T20:25:26.645Z,69.77
2023-04-27T20:27:56.004Z,69.87
2023-04-27T20:30:24.897Z,70.03
2023-04-27T20:32:54.024Z,70.58
2023-04-27T20:35:24.446Z,70.89
2023-04-27T20:37:54.458Z,70.99
2023-04-27T20:40:23.120Z,71.18
2023-04-27T20:42:52.320Z,71.24
2023-04-27T20:45:21.703Z,71.38
2023-04-27T20:47:50.540Z,71.56
2023-04-27T20:50:19.924Z,71.55
2023-04-27T20:52:49.538Z,71.83
2023-04-27T20:55:19.149Z,71.93
2023-04-27T20:57:48.133Z,72.21
2023-04-27T21:00:19.405Z,71.99
2023-04-27T21:02:48.728Z,71.65
2023-04-27T21:05:17.663Z,71.90
2023-04-27T21:07:46.341Z,72.28
2023-04-27T21:10:15.537Z,72.46
2023-04-27T21:12:44.461Z,72.67
2023-04-27T21:15:13.439Z,72.97
2023-04-27T21:17:42.432Z,73.53
2023-04-27T21:20:11.724Z,74.26
2023-04-27T21:22:40.529Z,74.52
2023-04-27T21:25:09.606Z,75.05
2023-04-27T21:27:38.301Z,75.00
2023-04-27T21:30:08.508Z,75.51
2023-04-27T21:32:37.359Z,76.08
2023-04-27T21:35:08.189Z,76.80
2023-04-27T21:37:37.441Z,77.35
2023-04-27T21:40:06.827Z,78.01
2023-04-27T21:42:35.442Z,77.91
2023-04-27T21:45:04.861Z,77.05
2023-04-27T21:47:33.526Z,77.14
2023-04-27T21:50:02.405Z,77.64
2023-04-27T21:52:31.091Z,78.14
2023-04-27T21:54:59.662Z,77.93
2023-04-27T21:57:28.460Z,78.07
2023-04-27T21:59:57.132Z,78.14
2023-04-27T22:02:26.223Z,77.72
2023-04-27T22:05:51.873Z,77.81
2023-04-27T22:08:22.594Z,78.06
2023-04-27T22:10:51.479Z,78.00
2023-04-27T22:13:20.375Z,78.13
2023-04-27T22:15:50.135Z,78.22
2023-04-27T22:18:19.388Z,78.63
2023-04-27T22:20:48.783Z,78.53
2023-04-27T22:23:17.788Z,78.49
2023-04-27T22:25:47.091Z,78.70
2023-04-27T22:28:16.096Z,78.90
2023-04-27T22:30:45.893Z,78.99
2023-04-27T22:33:15.492Z,79.55
2023-04-27T22:35:44.297Z,79.60
2023-04-27T22:38:13.369Z,79.75
2023-04-27T22:40:42.267Z,79.91
2023-04-27T22:43:11.278Z,80.50
2023-04-27T22:45:40.473Z,81.06
2023-04-27T22:48:09.503Z,81.54
2023-04-27T22:50:38.334Z,82.10
2023-04-27T22:53:07.852Z,82.58
2023-04-27T22:55:36.959Z,83.07
2023-04-27T22:58:06.337Z,83.00
2023-04-27T23:00:35.233Z,83.12
2023-04-27T23:03:04.272Z,83.54
2023-04-27T23:05:33.323Z,83.19
2023-04-27T23:08:03.231Z,83.42
2023-04-27T23:10:32.343Z,83.82
2023-04-27T23:13:04.705Z,84.17
2023-04-27T23:15:34.594Z,83.70
2023-04-27T23:18:03.574Z,83.91
2023-04-27T23:20:32.409Z,84.56
2023-04-27T23:23:01.888Z,84.83
2023-04-27T23:25:33.519Z,84.97
2023-04-27T23:28:02.222Z,84.92
2023-04-27T23:30:31.449Z,85.35
2023-04-27T23:33:00.490Z,85.80
2023-04-27T23:35:30.304Z,86.19
2023-04-27T23:37:59.746Z,86.14
2023-04-27T23:40:28.537Z,85.96
2023-04-27T23:42:57.834Z,86.15
2023-04-27T23:45:26.522Z,86.11
2023-04-27T23:47:55.510Z,85.78
2023-04-27T23:50:25.522Z,85.79
2023-04-27T23:52:54.514Z,85.92
2023-04-27T23:55:23.533Z,85.97
2023-04-27T23:57:55.272Z,85.90
